createdAt,value
2023-05-22T00:02:50.846Z,17.75
2023-05-22T00:07:52.684Z,17.98
2023-05-22T00:12:54.297Z,19.38
2023-05-22T00:17:55.988Z,18.77
2023-05-22T00:22:58.044Z,16.70
2023-05-22T00:27:59.622Z,20.63
2023-05-22T00:33:02.360Z,18.17
2023-05-22T00:38:05.424Z,20.58
2023-05-22T00:43:08.672Z,17.70
2023-05-22T00:48:12.375Z,17.27
2023-05-22T00:53:14.887Z,15.98
2023-05-22T00:58:20.076Z,15.73
2023-05-22T01:03:26.323Z,16.30
2023-05-22T01:08:28.746Z,19.33
2023-05-22T01:13:44.544Z,20.00
2023-05-22T01:19:10.998Z,20.98
2023-05-22T01:24:45.173Z,19.27
2023-05-22T01:29:59.082Z,17.08
2023-05-22T01:35:03.367Z,17.38
2023-05-22T01:40:06.496Z,22.98
2023-05-22T01:45:11.812Z,19.63
2023-05-22T01:50:14.686Z,18.45
2023-05-22T01:55:27.607Z,16.80
2023-05-22T02:00:31.422Z,14.63
2023-05-22T02:05:35.910Z,20.70
2023-05-22T02:10:39.589Z,17.27
2023-05-22T02:15:48.012Z,17.30
2023-05-22T02:20:49.658Z,17.95
2023-05-22T02:25:51.352Z,18.58
2023-05-22T02:30:53.124Z,21.20
2023-05-22T02:35:54.798Z,16.30
2023-05-22T02:40:56.494Z,17.88
2023-05-22T02:45:58.115Z,21.20
2023-05-22T02:50:59.739Z,19.13
2023-05-22T02:56:01.303Z,16.10
2023-05-22T03:01:03.597Z,18.30
2023-05-22T03:06:05.396Z,16.05
2023-05-22T03:11:08.174Z,19.05
2023-05-22T03:16:10.954Z,18.45
2023-05-22T03:21:17.595Z,19.38
2023-05-22T03:26:19.194Z,17.75
2023-05-22T03:31:20.753Z,16.13
2023-05-22T03:36:34.243Z,16.83
2023-05-22T03:41:37.015Z,18.90
2023-05-22T03:46:39.230Z,19.60
2023-05-22T03:51:41.012Z,19.77
2023-05-22T03:56:43.742Z,17.95
2023-05-22T04:01:46.707Z,16.95
2023-05-22T04:06:49.700Z,18.67
2023-05-22T04:11:53.259Z,15.80
2023-05-22T04:16:54.921Z,16.23
2023-05-22T04:21:58.272Z,15.65
2023-05-22T04:27:00.522Z,15.73
2023-05-22T04:32:02.296Z,14.50
2023-05-22T04:37:05.359Z,15.32
2023-05-22T04:42:07.199Z,14.93
2023-05-22T04:47:14.557Z,17.08
2023-05-22T04:52:16.425Z,15.45
2023-05-22T04:57:21.293Z,14.55
2023-05-22T05:02:25.685Z,16.33
2023-05-22T05:07:27.929Z,15.70
2023-05-22T05:12:29.555Z,12.63
2023-05-22T05:17:31.238Z,15.02
2023-05-22T05:22:33.163Z,17.85
2023-05-22T05:27:36.479Z,15.18
2023-05-22T05:32:38.693Z,13.55
2023-05-22T05:37:52.975Z,12.73
2023-05-22T05:42:56.267Z,11.15
2023-05-22T05:48:00.885Z,11.93
2023-05-22T05:53:02.586Z,13.23
2023-05-22T05:58:04.332Z,11.27
2023-05-22T06:03:25.610Z,11.03
2023-05-22T06:08:39.280Z,11.40
2023-05-22T06:13:41.059Z,11.32
2023-05-22T06:18:42.679Z,12.48
2023-05-22T06:23:44.428Z,11.88
2023-05-22T06:28:46.317Z,9.98
2023-05-22T06:33:48.234Z,10.15
2023-05-22T06:38:50.113Z,9.25
2023-05-22T06:44:14.889Z,9.60
2023-05-22T06:49:16.880Z,9.45
2023-05-22T06:54:28.701Z,10.05
2023-05-22T06:59:32.093Z,11.25
2023-05-22T07:04:44.905Z,11.50
2023-05-22T07:09:51.765Z,11.75
2023-05-22T07:14:54.688Z,9.95
2023-05-22T07:19:58.392Z,10.95
2023-05-22T07:25:02.938Z,9.00
2023-05-22T07:30:08.110Z,10.43
2023-05-22T07:35:11.707Z,10.32
2023-05-22T07:40:14.416Z,10.80
2023-05-22T07:45:16.186Z,11.25
2023-05-22T07:50:18.014Z,9.68
2023-05-22T07:55:21.237Z,9.07
2023-05-22T08:00:27.306Z,9.68
2023-05-22T08:05:28.953Z,7.85
2023-05-22T08:10:46.544Z,7.78
2023-05-22T08:15:49.185Z,7.17
2023-05-22T08:20:54.309Z,7.07
2023-05-22T08:25:58.030Z,9.15
2023-05-22T08:30:59.630Z,8.40
2023-05-22T08:36:01.259Z,8.75
2023-05-22T08:41:03.015Z,9.70
2023-05-22T08:46:06.259Z,11.20
2023-05-22T08:51:09.139Z,8.55
2023-05-22T08:56:10.935Z,8.98
2023-05-22T09:01:14.037Z,13.32
2023-05-22T09:06:21.095Z,11.15
2023-05-22T09:11:22.734Z,9.43
2023-05-22T09:16:25.442Z,10.88
2023-05-22T09:21:30.723Z,10.05
2023-05-22T09:26:33.684Z,11.30
2023-05-22T09:31:42.154Z,13.02
2023-05-22T09:36:44.048Z,12.40
2023-05-22T09:41:45.764Z,12.48
2023-05-22T09:46:48.141Z,11.35
2023-05-22T09:51:54.480Z,9.75
2023-05-22T09:56:58.688Z,10.05
2023-05-22T10:02:02.202Z,9.05
2023-05-22T10:07:05.615Z,10.77
2023-05-22T10:12:10.307Z,11.52
2023-05-22T10:17:12.619Z,13.07
2023-05-22T10:22:20.801Z,10.05
2023-05-22T10:27:22.412Z,10.55
2023-05-22T10:32:46.742Z,12.02
2023-05-22T10:38:14.998Z,10.80
2023-05-22T10:43:16.759Z,8.85
2023-05-22T10:48:22.207Z,9.55
2023-05-22T10:53:28.301Z,10.13
2023-05-22T10:58:37.312Z,10.75
2023-05-22T11:08:56.496Z,11.50
2023-05-22T11:14:04.364Z,11.20
2023-05-22T11:19:21.832Z,10.25
2023-05-22T11:24:24.942Z,10.10
2023-05-22T11:29:27.165Z,13.30
2023-05-22T11:34:29.000Z,10.82
2023-05-22T11:39:33.757Z,10.82
2023-05-22T11:44:35.629Z,10.73
2023-05-22T11:49:37.393Z,8.68
2023-05-22T11:54:39.182Z,10.95
2023-05-22T11:59:44.976Z,9.35
2023-05-22T12:04:46.698Z,9.95
2023-05-22T12:09:49.295Z,12.90
2023-05-22T12:14:51.121Z,9.82
2023-05-22T12:19:53.362Z,10.25
2023-05-22T12:24:55.684Z,11.00
2023-05-22T12:29:58.165Z,9.68
2023-05-22T12:35:00.043Z,12.18
2023-05-22T12:40:04.317Z,10.77
2023-05-22T12:45:06.479Z,11.07
2023-05-22T12:50:08.845Z,10.40
2023-05-22T12:55:10.925Z,10.80
2023-05-22T13:00:13.482Z,10.65
2023-05-22T13:05:15.819Z,9.55
2023-05-22T13:10:18.986Z,9.30
2023-05-22T13:15:20.727Z,10.57
2023-05-22T13:20:23.723Z,8.88
2023-05-22T13:25:25.352Z,9.10
2023-05-22T13:30:27.064Z,11.00
2023-05-22T13:35:28.681Z,10.98
2023-05-22T13:40:30.705Z,8.55
2023-05-22T13:45:34.432Z,8.07
2023-05-22T13:50:36.053Z,10.18
2023-05-22T13:55:37.957Z,8.85
2023-05-22T14:00:39.716Z,8.00
2023-05-22T14:05:41.491Z,7.45
2023-05-22T14:10:43.335Z,9.48
2023-05-22T14:15:46.966Z,9.38
2023-05-22T14:20:48.852Z,9.25
2023-05-22T14:25:50.432Z,7.60
2023-05-22T14:30:52.078Z,9.93
2023-05-22T14:35:53.820Z,7.30
2023-05-22T14:40:55.400Z,7.32
2023-05-22T14:45:58.155Z,6.90
2023-05-22T14:51:00.012Z,7.22
2023-05-22T14:56:01.628Z,7.20
2023-05-22T15:01:03.465Z,9.80
2023-05-22T15:06:05.187Z,10.82
2023-05-22T15:11:06.755Z,7.03
2023-05-22T15:16:08.359Z,10.98
2023-05-22T15:21:10.174Z,10.40
2023-05-22T15:26:11.940Z,8.27
2023-05-22T15:31:14.059Z,9.27
2023-05-22T15:36:15.897Z,8.88
2023-05-22T15:41:17.485Z,7.00
2023-05-22T15:46:19.516Z,7.43
2023-05-22T15:51:21.215Z,8.32
2023-05-22T15:56:23.698Z,8.32
2023-05-22T16:01:26.054Z,8.30
2023-05-22T16:06:28.553Z,8.63
2023-05-22T16:11:30.267Z,9.77
2023-05-22T16:16:31.944Z,9.63
2023-05-22T16:21:33.635Z,10.85
2023-05-22T16:26:37.622Z,10.35
2023-05-22T16:31:39.322Z,11.57
2023-05-22T16:36:40.964Z,10.45
2023-05-22T16:41:42.706Z,10.02
2023-05-22T16:46:44.378Z,7.18
2023-05-22T16:51:46.071Z,6.28
2023-05-22T16:56:47.653Z,11.90
2023-05-22T17:01:49.340Z,7.25
2023-05-22T17:06:53.722Z,7.18
2023-05-22T17:11:55.402Z,6.07
2023-05-22T17:16:56.976Z,5.68
2023-05-22T17:21:58.687Z,7.45
2023-05-22T17:27:00.615Z,7.30
2023-05-22T17:32:04.816Z,4.93
2023-05-22T17:37:06.626Z,5.03
2023-05-22T17:42:08.238Z,5.55
2023-05-22T17:47:09.824Z,5.95
2023-05-22T17:52:13.008Z,5.43
2023-05-22T17:57:14.634Z,6.03
2023-05-22T18:02:16.325Z,5.97
2023-05-22T18:07:19.284Z,5.97
2023-05-22T18:17:25.622Z,7.20
2023-05-22T18:22:27.289Z,4.93
2023-05-22T18:27:29.043Z,6.18
2023-05-22T18:32:31.375Z,5.45
2023-05-22T18:37:33.117Z,7.32
2023-05-22T18:42:34.851Z,5.25
2023-05-22T18:47:36.645Z,5.45
2023-05-22T18:52:38.300Z,6.13
2023-05-22T18:57:39.876Z,7.25
2023-05-22T19:02:41.472Z,6.35
2023-05-22T19:07:43.170Z,7.72
2023-05-22T19:12:44.748Z,7.18
2023-05-22T19:17:46.385Z,6.10
2023-05-22T19:22:48.118Z,6.97
2023-05-22T19:27:49.861Z,8.05
2023-05-22T19:32:55.657Z,10.07
2023-05-22T19:37:57.457Z,9.32
2023-05-22T19:42:59.130Z,7.32
2023-05-22T19:48:00.876Z,7.40
2023-05-22T19:53:02.514Z,10.32
2023-05-22T19:58:04.100Z,8.98
2023-05-22T20:03:05.855Z,7.40
2023-05-22T20:08:07.706Z,7.18
2023-05-22T20:13:09.369Z,8.13
2023-05-22T20:18:11.003Z,8.27
2023-05-22T20:23:12.711Z,7.28
2023-05-22T20:28:14.314Z,8.52
2023-05-22T20:33:16.873Z,8.73
2023-05-22T20:38:18.992Z,9.18
2023-05-22T20:43:20.785Z,9.65
2023-05-22T20:48:22.360Z,11.20
2023-05-22T20:53:24.606Z,8.98
2023-05-22T20:58:26.185Z,8.13
2023-05-22T21:03:28.834Z,8.43
2023-05-22T21:08:30.592Z,9.65
2023-05-22T21:13:32.132Z,10.13
2023-05-22T21:18:33.753Z,11.82
2023-05-22T21:23:35.573Z,13.82
2023-05-22T21:28:37.176Z,8.10
2023-05-22T21:33:38.765Z,9.88
2023-05-22T21:38:40.409Z,13.07
2023-05-22T21:43:42.345Z,9.98
2023-05-22T21:48:43.993Z,11.65
2023-05-22T21:53:46.616Z,10.52
2023-05-22T21:58:48.616Z,20.40
2023-05-22T22:03:50.249Z,14.77
2023-05-22T22:08:53.197Z,12.25
2023-05-22T22:13:55.093Z,11.65
2023-05-22T22:18:58.140Z,10.93
2023-05-22T22:23:59.929Z,11.50
2023-05-22T22:29:01.575Z,11.27
2023-05-22T22:34:05.554Z,11.43
2023-05-22T22:39:07.387Z,10.05
2023-05-22T22:44:09.104Z,11.82
2023-05-22T22:49:10.820Z,10.63
2023-05-22T22:54:15.320Z,10.90
2023-05-22T22:59:17.194Z,9.73
2023-05-22T23:04:18.878Z,9.93
2023-05-22T23:09:20.565Z,10.98
2023-05-22T23:14:22.565Z,13.73
2023-05-22T23:19:24.336Z,10.80
2023-05-22T23:24:25.972Z,12.85
2023-05-22T23:29:27.593Z,14.35
2023-05-22T23:34:29.222Z,11.88
2023-05-22T23:39:30.835Z,12.63
2023-05-22T23:44:32.414Z,14.35
2023-05-22T23:49:34.052Z,13.75
2023-05-22T23:54:35.654Z,14.95
2023-05-22T23:59:37.304Z,14.00
